NOAA Web Site Link Tides and Currents Home Page Transparent placeholder image

PORTS® Data Listing: 8548989 Newbold, PA

CO-OPS RAW PORTS DATA

************************      PRELIMINARY DATA      ************************** 

     THIS RAW DATA HAS NOT BEEN SUBJECT TO THE NATIONAL OCEAN SERVICE'S        
     QUALITY CONTROL OR QUALITY ASSURANCE PROCEDURES AND DOES NOT MEET         
     THE CRITERIA AND STANDARDS OF OFFICIAL NATIONAL OCEAN SERVICE             
     DATA.  IT IS RELEASED FOR LIMITED PUBLIC USE AS PRELIMINARY DATA TO       
     BE USED ONLY WITH APPROPRIATE CAUTION.                                    

************************      PRELIMINARY DATA      ************************** 


       CD   -   Calendar date
       T    -   Time
       TZ   -   Timezone
       PW   -   Predicted water level (feet above MLLW)
       OW   -   Observed water level (feet above MLLW)
       WS   -   Wind speed (knots)
       WD   -   Wind direction (degrees true)
       WG   -   Wind gust (knots)
       AT   -   Air temperature (degrees farenheit)
       WT   -   Water temperature (degrees farenheit)
       AP   -   Air pressure (millibars)
       SA   -   Salinty (PSU - Practical Salinity Units)
       SG   -   Specific gravity
       RH   -   Relative humidity
       AG   -   Air gap (feet)
       VI   -   Visibility (nautical miles)

       ** NOTE **
       A variable that has its data fields filled with "9"s, indicates that
       data was not collected for that sample period.
       **********


STATION NAME: Newbold (8548989)
****************************************************************************************************
    CD       T    TZ    PW     OW    WS   WD   WG    AT    WT    AP    SA    SG     RH    AG   VI
****************************************************************************************************
2018/12/10 11:06 EST    0.42   0.86    7   51   14  36.1  37.4 1021.5 -9.9 -9.999 -99.9 -99.99 -9.99
2018/12/10 11:12 EST    0.40   0.79    3   51   12  37.4  37.4 1021.5 -9.9 -9.999 -99.9 -99.99 -9.99
2018/12/10 11:18 EST    0.39   0.73    4   27    9  36.3  37.4 1021.3 -9.9 -9.999 -99.9 -99.99 -9.99
2018/12/10 11:24 EST    0.39   0.67    4   38    6  36.3  37.4 1021.2 -9.9 -9.999 -99.9 -99.99 -9.99
2018/12/10 11:30 EST    0.41   0.63    6   41    9  36.3  37.4 1021.2 -9.9 -9.999 -99.9 -99.99 -9.99
2018/12/10 11:36 EST    0.45   0.59    5   51   10  37.4  37.4 1021.0 -9.9 -9.999 -99.9 -99.99 -9.99
2018/12/10 11:42 EST    0.50   0.59    5   52   12  37.0  37.4 1020.9 -9.9 -9.999 -99.9 -99.99 -9.99
2018/12/10 11:48 EST    0.57   0.62    6   54   10  37.4  37.4 1020.8 -9.9 -9.999 -99.9 -99.99 -9.99
2018/12/10 11:54 EST    0.66   0.72    4   75    9  37.6  37.4 1020.8 -9.9 -9.999 -99.9 -99.99 -9.99
2018/12/10 12:00 EST    0.77   0.90    4   42    8  37.8  37.4 1020.7 -9.9 -9.999 -99.9 -99.99 -9.99
2018/12/10 12:06 EST    0.90   1.18    4   44    7  37.4  37.4 1020.6 -9.9 -9.999 -99.9 -99.99 -9.99
2018/12/10 12:12 EST    1.05   1.50    4   22    9  37.6  37.4 1020.5 -9.9 -9.999 -99.9 -99.99 -9.99
2018/12/10 12:18 EST    1.22   1.82    3   28    7  37.4  37.4 1020.6 -9.9 -9.999 -99.9 -99.99 -9.99
2018/12/10 12:24 EST    1.41   2.12    3   39    5  38.1  37.4 1020.6 -9.9 -9.999 -99.9 -99.99 -9.99
2018/12/10 12:30 EST    1.61   2.39    4   25    5  38.5  37.4 1020.5 -9.9 -9.999 -99.9 -99.99 -9.99
2018/12/10 12:36 EST    1.83   2.65    5   53    9  38.5  37.4 1020.5 -9.9 -9.999 -99.9 -99.99 -9.99
2018/12/10 12:42 EST    2.07   2.92    4   61    8  38.8  37.4 1020.4 -9.9 -9.999 -99.9 -99.99 -9.99
2018/12/10 12:48 EST    2.31   3.20    2   42    6  39.6  37.4 1020.4 -9.9 -9.999 -99.9 -99.99 -9.99
2018/12/10 12:54 EST    2.57   3.50    5   61    8  39.6  37.4 1020.4 -9.9 -9.999 -99.9 -99.99 -9.99
2018/12/10 13:00 EST    2.84   3.81    4   64    8  39.2  37.4 1020.4 -9.9 -9.999 -99.9 -99.99 -9.99
2018/12/10 13:06 EST    3.11   4.14    4   61    8  39.7  37.4 1020.4 -9.9 -9.999 -99.9 -99.99 -9.99
2018/12/10 13:12 EST    3.38   4.46    3    3    7  40.1  37.4 1020.4 -9.9 -9.999 -99.9 -99.99 -9.99
2018/12/10 13:18 EST    3.66   4.77    2   28    6  40.3  37.4 1020.4 -9.9 -9.999 -99.9 -99.99 -9.99
2018/12/10 13:24 EST    3.94   5.04    3   53    6  41.4  37.4 1020.3 -9.9 -9.999 -99.9 -99.99 -9.99
2018/12/10 13:30 EST    4.21   5.28    2   17    6  40.3  37.2 1020.3 -9.9 -9.999 -99.9 -99.99 -9.99
2018/12/10 13:36 EST    4.48   5.49    4   19    7  39.7  37.2 1020.3 -9.9 -9.999 -99.9 -99.99 -9.99
2018/12/10 13:42 EST    4.75   5.70    3    9    5  40.6  37.0 1020.3 -9.9 -9.999 -99.9 -99.99 -9.99
2018/12/10 13:48 EST    5.01   5.88    3   19    6  40.5  37.0 1020.3 -9.9 -9.999 -99.9 -99.99 -9.99
2018/12/10 13:54 EST    5.25   6.05    2   21    4  42.1  36.9 1020.3 -9.9 -9.999 -99.9 -99.99 -9.99
2018/12/10 14:00 EST    5.49   6.24    2   41    7  40.3  37.0 1020.2 -9.9 -9.999 -99.9 -99.99 -9.99
2018/12/10 14:06 EST    5.72   6.41    3   32    6  40.6  36.9 1020.2 -9.9 -9.999 -99.9 -99.99 -9.99
2018/12/10 14:12 EST    5.93   6.57    4  354    6  40.3  36.9 1020.1 -9.9 -9.999 -99.9 -99.99 -9.99
2018/12/10 14:18 EST    6.14   6.74    2   23    4  40.6  36.9 1020.1 -9.9 -9.999 -99.9 -99.99 -9.99
2018/12/10 14:24 EST    6.33   6.90    3   30    5  40.3  36.9 1020.0 -9.9 -9.999 -99.9 -99.99 -9.99
2018/12/10 14:30 EST    6.51   7.05    3   12    7  40.5  36.9 1020.0 -9.9 -9.999 -99.9 -99.99 -9.99
2018/12/10 14:36 EST    6.68   7.20    5    7    6  40.5  36.9 1020.0 -9.9 -9.999 -99.9 -99.99 -9.99
2018/12/10 14:42 EST    6.84   7.34    3    8    5  40.5  36.9 1020.0 -9.9 -9.999 -99.9 -99.99 -9.99
2018/12/10 14:48 EST    6.99   7.48    2   28    5  40.6  36.9 1020.0 -9.9 -9.999 -99.9 -99.99 -9.99
2018/12/10 14:54 EST    7.13   7.61    2   25    6  40.5  36.9 1020.1 -9.9 -9.999 -99.9 -99.99 -9.99
2018/12/10 15:00 EST    7.27   7.74    1   37    5  41.2  36.9 1020.1 -9.9 -9.999 -99.9 -99.99 -9.99
2018/12/10 15:06 EST    7.39   7.86    2   45    4  41.0  36.9 1020.2 -9.9 -9.999 -99.9 -99.99 -9.99
2018/12/10 15:12 EST    7.51   7.98    3   54    5  41.2  36.9 1020.2 -9.9 -9.999 -99.9 -99.99 -9.99
2018/12/10 15:18 EST    7.63   8.09    1   29    4  41.4  36.9 1020.3 -9.9 -9.999 -99.9 -99.99 -9.99
2018/12/10 15:24 EST    7.73   8.21    2   37    4  41.4  36.9 1020.3 -9.9 -9.999 -99.9 -99.99 -9.99
2018/12/10 15:30 EST    7.84   8.31    4    0    5  41.0  36.9 1020.3 -9.9 -9.999 -99.9 -99.99 -9.99
2018/12/10 15:36 EST    7.94   8.41    1   36    5  40.8  36.9 1020.4 -9.9 -9.999 -99.9 -99.99 -9.99
2018/12/10 15:42 EST    8.03   8.50    2   27    5  40.5  36.9 1020.5 -9.9 -9.999 -99.9 -99.99 -9.99
2018/12/10 15:48 EST    8.12   8.59    2   43    4  40.6  36.9 1020.5 -9.9 -9.999 -99.9 -99.99 -9.99
2018/12/10 15:54 EST    8.20   8.68    2   11    4  40.1  36.9 1020.6 -9.9 -9.999 -99.9 -99.99 -9.99
2018/12/10 16:00 EST    8.28   8.75    3  358    4  39.6  36.9 1020.6 -9.9 -9.999 -99.9 -99.99 -9.99
2018/12/10 16:06 EST    8.35   8.83    2   43    3  39.4  36.7 1020.6 -9.9 -9.999 -99.9 -99.99 -9.99
2018/12/10 16:12 EST    8.41   8.89    2   40    3  39.0  36.9 1020.7 -9.9 -9.999 -99.9 -99.99 -9.99
2018/12/10 16:18 EST    8.47   8.95    1   40    3  38.8  36.7 1020.7 -9.9 -9.999 -99.9 -99.99 -9.99
2018/12/10 16:24 EST    8.52   8.99    1   25    3  38.7  36.7 1020.7 -9.9 -9.999 -99.9 -99.99 -9.99
2018/12/10 16:30 EST    8.56   9.02    1   28    2  38.3  36.7 1020.8 -9.9 -9.999 -99.9 -99.99 -9.99
2018/12/10 16:36 EST    8.58   9.04    0   32    2  38.1  36.7 1020.7 -9.9 -9.999 -99.9 -99.99 -9.99
2018/12/10 16:42 EST    8.60   9.06    1   70    2  37.4  36.7 1020.7 -9.9 -9.999 -99.9 -99.99 -9.99
2018/12/10 16:48 EST    8.60   9.06    2   96    3  36.9  36.7 1020.7 -9.9 -9.999 -99.9 -99.99 -9.99
2018/12/10 16:54 EST    8.59   9.06    2   75    2  36.7  36.7 1020.7 -9.9 -9.999 -99.9 -99.99 -9.99
2018/12/10 17:00 EST    8.57   9.04    1   45    4  36.7  36.7 1020.7 -9.9 -9.999 -99.9 -99.99 -9.99
2018/12/10 17:06 EST    8.54   9.01    1   48    2  36.9  36.7 1020.8 -9.9 -9.999 -99.9 -99.99 -9.99
2018/12/10 17:12 EST    8.49   8.96    1   47    3  36.5  36.7 1020.8 -9.9 -9.999 -99.9 -99.99 -9.99
2018/12/10 17:18 EST    8.42   8.90    0   34    2  36.7  36.7 1020.8 -9.9 -9.999 -99.9 -99.99 -9.99
2018/12/10 17:24 EST    8.35   8.83    0   37    1  36.3  36.9 1020.8 -9.9 -9.999 -99.9 -99.99 -9.99
2018/12/10 17:30 EST    8.26   8.75    0   66    1  34.7  36.9 1020.8 -9.9 -9.999 -99.9 -99.99 -9.99
2018/12/10 17:36 EST    8.16   8.65    0   88    2  34.0  36.7 1020.9 -9.9 -9.999 -99.9 -99.99 -9.99
2018/12/10 17:42 EST    8.04   8.54    1  189    2  32.7  36.7 1021.0 -9.9 -9.999 -99.9 -99.99 -9.99
2018/12/10 17:48 EST    7.92   8.42    0  216    1  32.9  36.9 1021.0 -9.9 -9.999 -99.9 -99.99 -9.99
2018/12/10 17:54 EST    7.78   8.29    1  169    2  32.2  36.9 1021.0 -9.9 -9.999 -99.9 -99.99 -9.99
2018/12/10 18:00 EST    7.64   8.16    1  201    2  32.0  36.9 1021.1 -9.9 -9.999 -99.9 -99.99 -9.99
2018/12/10 18:06 EST    7.49   8.02    1  228    1  31.8  36.9 1021.1 -9.9 -9.999 -99.9 -99.99 -9.99
2018/12/10 18:12 EST    7.33   7.87    1  153    2  31.5  36.9 1021.2 -9.9 -9.999 -99.9 -99.99 -9.99
2018/12/10 18:18 EST    7.17   7.72    0  172    2  31.1  36.9 1021.2 -9.9 -9.999 -99.9 -99.99 -9.99
2018/12/10 18:24 EST    7.00   7.58    0  225    1  31.3  36.9 1021.2 -9.9 -9.999 -99.9 -99.99 -9.99
2018/12/10 18:30 EST    6.83   7.43    0  184    1  31.3  36.9 1021.3 -9.9 -9.999 -99.9 -99.99 -9.99
2018/12/10 18:36 EST    6.66   7.28    0  245    1  31.5  37.0 1021.3 -9.9 -9.999 -99.9 -99.99 -9.99
2018/12/10 18:42 EST    6.49   7.13    1  256    1  31.3  37.0 1021.2 -9.9 -9.999 -99.9 -99.99 -9.99
2018/12/10 18:48 EST    6.32   6.98    0  357    2  31.3  37.0 1021.2 -9.9 -9.999 -99.9 -99.99 -9.99
2018/12/10 18:54 EST    6.14   6.83    1  299    1  31.6  37.0 1021.2 -9.9 -9.999 -99.9 -99.99 -9.99
2018/12/10 19:00 EST    5.97   6.67    0  344    0  31.1  37.0 1021.3 -9.9 -9.999 -99.9 -99.99 -9.99
2018/12/10 19:06 EST    5.80   6.52    1  344    1  31.3  37.0 1021.3 -9.9 -9.999 -99.9 -99.99 -9.99
2018/12/10 19:12 EST    5.63   6.38    0  344    1  30.9  37.0 1021.3 -9.9 -9.999 -99.9 -99.99 -9.99
2018/12/10 19:18 EST    5.47   6.23    0  344    0  30.6  37.0 1021.4 -9.9 -9.999 -99.9 -99.99 -9.99
2018/12/10 19:24 EST    5.30   6.08    0  344    0  30.9  37.2 1021.5 -9.9 -9.999 -99.9 -99.99 -9.99
2018/12/10 19:30 EST    5.14   5.94    2  178    2  30.6  37.2 1021.6 -9.9 -9.999 -99.9 -99.99 -9.99
2018/12/10 19:36 EST    4.99   5.81    1  172    1  30.0  37.2 1021.6 -9.9 -9.999 -99.9 -99.99 -9.99
2018/12/10 19:42 EST    4.83   5.68    0  166    1  30.0  37.2 1021.7 -9.9 -9.999 -99.9 -99.99 -9.99
2018/12/10 19:48 EST    4.68   5.54    1  189    2  30.0  37.2 1021.8 -9.9 -9.999 -99.9 -99.99 -9.99
2018/12/10 19:54 EST    4.53   5.40    0  153    2  29.7  37.2 1021.8 -9.9 -9.999 -99.9 -99.99 -9.99
2018/12/10 20:00 EST    4.38   5.27    0  154    0  29.7  37.2 1021.8 -9.9 -9.999 -99.9 -99.99 -9.99
2018/12/10 20:06 EST    4.23   5.15    0  153    1  29.7  37.2 1021.8 -9.9 -9.999 -99.9 -99.99 -9.99
2018/12/10 20:12 EST    4.09   5.02    1  120    1  29.8  37.2 1021.8 -9.9 -9.999 -99.9 -99.99 -9.99
2018/12/10 20:18 EST    3.95   4.90    0   30    1  29.7  37.2 1021.8 -9.9 -9.999 -99.9 -99.99 -9.99
2018/12/10 20:24 EST    3.81   4.78    1  131    1  29.3  37.2 1021.8 -9.9 -9.999 -99.9 -99.99 -9.99
2018/12/10 20:30 EST    3.68   4.65    0   75    1  29.5  37.2 1021.8 -9.9 -9.999 -99.9 -99.99 -9.99
2018/12/10 20:36 EST    3.54   4.52    0   43    1  29.1  37.2 1021.8 -9.9 -9.999 -99.9 -99.99 -9.99
2018/12/10 20:42 EST    3.41   4.41    0   26    1  29.1  37.2 1021.7 -9.9 -9.999 -99.9 -99.99 -9.99
2018/12/10 20:48 EST    3.29   4.29    0   31    1  29.3  37.2 1021.8 -9.9 -9.999 -99.9 -99.99 -9.99
2018/12/10 20:54 EST    3.16   4.18    1  170    2  29.5  37.2 1021.9 -9.9 -9.999 -99.9 -99.99 -9.99
2018/12/10 21:00 EST    3.04   4.05    0  191    2  29.5  37.2 1021.9 -9.9 -9.999 -99.9 -99.99 -9.99
2018/12/10 21:06 EST    2.92   3.94    1  202    1  30.0  37.2 1022.0 -9.9 -9.999 -99.9 -99.99 -9.99
2018/12/10 21:12 EST    2.80   3.83    2  163    2  29.1  37.2 1022.1 -9.9 -9.999 -99.9 -99.99 -9.99
2018/12/10 21:18 EST    2.68   3.72    2  168    3  28.6  37.2 1022.2 -9.9 -9.999 -99.9 -99.99 -9.99
2018/12/10 21:24 EST    2.57   3.60    1  167    2  28.8  37.2 1022.2 -9.9 -9.999 -99.9 -99.99 -9.99
2018/12/10 21:30 EST    2.46   3.49    1  163    1  28.6  37.2 1022.3 -9.9 -9.999 -99.9 -99.99 -9.99
2018/12/10 21:36 EST    2.35   3.39    1  163    1  28.6  37.2 1022.3 -9.9 -9.999 -99.9 -99.99 -9.99
2018/12/10 21:42 EST    2.24   3.27    0  142    3  28.4  37.2 1022.3 -9.9 -9.999 -99.9 -99.99 -9.99
2018/12/10 21:48 EST    2.13   3.17    1  287    1  29.1  37.2 1022.3 -9.9 -9.999 -99.9 -99.99 -9.99
2018/12/10 21:54 EST    2.03   3.06    1  295    1  29.1  37.2 1022.3 -9.9 -9.999 -99.9 -99.99 -9.99
2018/12/10 22:00 EST    1.92   2.95    1  258    1  29.3  37.2 1022.3 -9.9 -9.999 -99.9 -99.99 -9.99
2018/12/10 22:06 EST    1.82   2.85    0  259    1  29.1  37.2 1022.4 -9.9 -9.999 -99.9 -99.99 -9.99
2018/12/10 22:12 EST    1.71   2.74    0  276    1  28.8  37.2 1022.4 -9.9 -9.999 -99.9 -99.99 -9.99
2018/12/10 22:18 EST    1.61   2.64    1  292    1  28.9  37.0 1022.5 -9.9 -9.999 -99.9 -99.99 -9.99
2018/12/10 22:24 EST    1.50   2.54    0  254    1  28.8  37.0 1022.5 -9.9 -9.999 -99.9 -99.99 -9.99
2018/12/10 22:30 EST    1.39   2.44    0  200    0  28.4  37.0 1022.5 -9.9 -9.999 -99.9 -99.99 -9.99
2018/12/10 22:36 EST    1.29   2.34    1  291    1  28.8  37.0 1022.6 -9.9 -9.999 -99.9 -99.99 -9.99
2018/12/10 22:42 EST    1.18   2.24    0  291    1  28.4  37.0 1022.6 -9.9 -9.999 -99.9 -99.99 -9.99
2018/12/10 22:48 EST    1.08   2.14    1  291    1  28.6  37.0 1022.6 -9.9 -9.999 -99.9 -99.99 -9.99
2018/12/10 22:54 EST    0.97   2.05    1  276    1  28.6  37.0 1022.7 -9.9 -9.999 -99.9 -99.99 -9.99
2018/12/10 23:00 EST    0.87   1.95    0  175    1  28.2  37.0 1022.7 -9.9 -9.999 -99.9 -99.99 -9.99
2018/12/10 23:06 EST    0.77   1.86    0  179    1  28.4  37.0 1022.7 -9.9 -9.999 -99.9 -99.99 -9.99
2018/12/10 23:12 EST    0.67   1.77    0  291    1  27.7  37.0 1022.8 -9.9 -9.999 -99.9 -99.99 -9.99
2018/12/10 23:18 EST    0.58   1.69    0  192    1  28.2  37.0 1022.8 -9.9 -9.999 -99.9 -99.99 -9.99
2018/12/10 23:24 EST    0.50   1.60    1  182    2  28.0  37.0 1022.8 -9.9 -9.999 -99.9 -99.99 -9.99
2018/12/10 23:30 EST    0.42   1.52    0  157    2  27.9  37.0 1022.8 -9.9 -9.999 -99.9 -99.99 -9.99
2018/12/10 23:36 EST    0.36   1.44    0   27    1  27.5  37.0 1022.8 -9.9 -9.999 -99.9 -99.99 -9.99
2018/12/10 23:42 EST    0.30   1.36    1   56    1  27.9  37.0 1022.8 -9.9 -9.999 -99.9 -99.99 -9.99
2018/12/10 23:48 EST    0.26   1.28    1   63    2  28.0  37.0 1022.9 -9.9 -9.999 -99.9 -99.99 -9.99
2018/12/10 23:54 EST    0.23   1.22    0   49    1  28.4  37.0 1022.9 -9.9 -9.999 -99.9 -99.99 -9.99
2018/12/11 00:00 EST    0.22   1.15    1   56    1  28.6  37.0 1022.8 -9.9 -9.999 -99.9 -99.99 -9.99
2018/12/11 00:06 EST    0.22   1.10    1   42    2  28.8  37.0 1022.7 -9.9 -9.999 -99.9 -99.99 -9.99
2018/12/11 00:12 EST    0.24   1.05    1   73    1  28.6  37.0 1022.7 -9.9 -9.999 -99.9 -99.99 -9.99
2018/12/11 00:18 EST    0.28   1.02    2   62    2  28.8  37.0 1022.6 -9.9 -9.999 -99.9 -99.99 -9.99
2018/12/11 00:24 EST    0.34   1.01    2   50    3  29.1  37.0 1022.7 -9.9 -9.999 -99.9 -99.99 -9.99
2018/12/11 00:30 EST    0.42   1.01    1   53    3  28.9  37.0 1022.6 -9.9 -9.999 -99.9 -99.99 -9.99
2018/12/11 00:36 EST    0.52   1.07    1   33    2  28.9  36.9 1022.6 -9.9 -9.999 -99.9 -99.99 -9.99
2018/12/11 00:42 EST    0.64   1.15    1   54    2  28.8  36.9 1022.6 -9.9 -9.999 -99.9 -99.99 -9.99
2018/12/11 00:48 EST    0.78   1.30    1   63    2  28.9  36.9 1022.6 -9.9 -9.999 -99.9 -99.99 -9.99
2018/12/11 00:54 EST    0.93   1.52    3   59    3  29.1  36.9 1022.6 -9.9 -9.999 -99.9 -99.99 -9.99
2018/12/11 01:00 EST    1.11   1.79    3   72    5  29.1  36.9 1022.6 -9.9 -9.999 -99.9 -99.99 -9.99
2018/12/11 01:06 EST    1.29   2.07    4   72    5  29.5  36.9 1022.6 -9.9 -9.999 -99.9 -99.99 -9.99
2018/12/11 01:12 EST    1.50   2.34    4   61    5  29.5  36.9 1022.7 -9.9 -9.999 -99.9 -99.99 -9.99
2018/12/11 01:18 EST    1.71   2.59    4   69    5  29.3  36.9 1022.7 -9.9 -9.999 -99.9 -99.99 -9.99
2018/12/11 01:24 EST    1.93   2.83    3   78    4  29.1  36.9 1022.7 -9.9 -9.999 -99.9 -99.99 -9.99
2018/12/11 01:30 EST    2.17   3.09    3   51    4  28.9  36.9 1022.6 -9.9 -9.999 -99.9 -99.99 -9.99
2018/12/11 01:36 EST    2.40   3.35    3   52    4  29.1  36.9 1022.6 -9.9 -9.999 -99.9 -99.99 -9.99
2018/12/11 01:42 EST    2.64   3.63    2   39    4  28.6  36.9 1022.6 -9.9 -9.999 -99.9 -99.99 -9.99
2018/12/11 01:48 EST    2.89   3.92    2   45    4  28.4  36.9 1022.6 -9.9 -9.999 -99.9 -99.99 -9.99
2018/12/11 01:54 EST    3.13   4.21    2   49    4  28.2  36.9 1022.7 -9.9 -9.999 -99.9 -99.99 -9.99
2018/12/11 02:00 EST    3.37   4.52    1   59    2  27.9  36.9 1022.7 -9.9 -9.999 -99.9 -99.99 -9.99
2018/12/11 02:06 EST    3.61   4.79    2   69    3  27.9  36.9 1022.7 -9.9 -9.999 -99.9 -99.99 -9.99
2018/12/11 02:12 EST    3.84   5.05    1   56    3  27.9  36.9 1022.7 -9.9 -9.999 -99.9 -99.99 -9.99
2018/12/11 02:18 EST    4.06   5.29    2   59    4  28.0  36.9 1022.7 -9.9 -9.999 -99.9 -99.99 -9.99
2018/12/11 02:24 EST    4.28   5.50    2   53    4  27.9  36.9 1022.7 -9.9 -9.999 -99.9 -99.99 -9.99
2018/12/11 02:30 EST    4.49   5.69    1   30    3  27.9  36.9 1022.7 -9.9 -9.999 -99.9 -99.99 -9.99
2018/12/11 02:36 EST    4.69   5.87    1   53    2  27.7  36.7 1022.8 -9.9 -9.999 -99.9 -99.99 -9.99
2018/12/11 02:42 EST    4.88   6.04    1   46    2  27.7  36.7 1022.8 -9.9 -9.999 -99.9 -99.99 -9.99
2018/12/11 02:48 EST    5.06   6.20    1   46    2  27.7  36.7 1022.8 -9.9 -9.999 -99.9 -99.99 -9.99
2018/12/11 02:54 EST    5.23   6.36    1   43    3  27.7  36.7 1022.8 -9.9 -9.999 -99.9 -99.99 -9.99
2018/12/11 03:00 EST    5.39   6.51    1   51    3  27.7  36.7 1022.8 -9.9 -9.999 -99.9 -99.99 -9.99
2018/12/11 03:06 EST    5.55   6.66    1   54    1  27.5  36.7 1022.7 -9.9 -9.999 -99.9 -99.99 -9.99
2018/12/11 03:12 EST    5.70   6.81    1   47    3  27.7  36.7 1022.7 -9.9 -9.999 -99.9 -99.99 -9.99
2018/12/11 03:18 EST    5.84   6.94    1   48    4  27.3  36.7 1022.7 -9.9 -9.999 -99.9 -99.99 -9.99
2018/12/11 03:24 EST    5.97   7.07    0   17    3  27.5  36.7 1022.7 -9.9 -9.999 -99.9 -99.99 -9.99
2018/12/11 03:30 EST    6.10   7.19    1   24    2  27.1  36.5 1022.6 -9.9 -9.999 -99.9 -99.99 -9.99
2018/12/11 03:36 EST    6.22   7.30    1   62    1  27.0  36.5 1022.5 -9.9 -9.999 -99.9 -99.99 -9.99
2018/12/11 03:42 EST    6.34   7.41    0   24    1  26.8  36.5 1022.5 -9.9 -9.999 -99.9 -99.99 -9.99
2018/12/11 03:48 EST    6.46   7.50    1   10    1  26.8  36.5 1022.5 -9.9 -9.999 -99.9 -99.99 -9.99
2018/12/11 03:54 EST    6.57   7.60    1   12    2  26.8  36.5 1022.5 -9.9 -9.999 -99.9 -99.99 -9.99
2018/12/11 04:00 EST    6.68   7.70    0   39    2  26.4  36.5 1022.5 -9.9 -9.999 -99.9 -99.99 -9.99
2018/12/11 04:06 EST    6.79   7.79    0   37    1  26.2  36.5 1022.4 -9.9 -9.999 -99.9 -99.99 -9.99
2018/12/11 04:12 EST    6.89   7.88    1   41    3  26.2  36.5 1022.4 -9.9 -9.999 -99.9 -99.99 -9.99
2018/12/11 04:18 EST    6.99   7.95    1   53    4  26.6  36.5 1022.4 -9.9 -9.999 -99.9 -99.99 -9.99
2018/12/11 04:24 EST    7.08   8.01    1   55    3  26.4  36.5 1022.4 -9.9 -9.999 -99.9 -99.99 -9.99
2018/12/11 04:30 EST    7.17   8.07    1   56    4  26.4  36.5 1022.3 -9.9 -9.999 -99.9 -99.99 -9.99
2018/12/11 04:36 EST    7.26   8.12    0   30    3  26.2  36.5 1022.3 -9.9 -9.999 -99.9 -99.99 -9.99
2018/12/11 04:42 EST    7.33   8.16    0   44    1  26.1  36.5 1022.2 -9.9 -9.999 -99.9 -99.99 -9.99
2018/12/11 04:48 EST    7.40   8.21    1   35    1  25.9  36.5 1022.2 -9.9 -9.999 -99.9 -99.99 -9.99
2018/12/11 04:54 EST    7.46   8.23    1   48    2  26.1  36.5 1022.2 -9.9 -9.999 -99.9 -99.99 -9.99
2018/12/11 05:00 EST    7.51   8.25    1   34    2  25.9  36.5 1022.1 -9.9 -9.999 -99.9 -99.99 -9.99
2018/12/11 05:06 EST    7.55 -99.99 -999 -999 -999 -99.9 -99.9 -999.9 -9.9 -9.999 -99.9 -99.99 -9.99
2018/12/11 05:12 EST    7.58 -99.99 -999 -999 -999 -99.9 -99.9 -999.9 -9.9 -9.999 -99.9 -99.99 -9.99
2018/12/11 05:18 EST    7.59 -99.99 -999 -999 -999 -99.9 -99.9 -999.9 -9.9 -9.999 -99.9 -99.99 -9.99
2018/12/11 05:24 EST    7.59 -99.99 -999 -999 -999 -99.9 -99.9 -999.9 -9.9 -9.999 -99.9 -99.99 -9.99
2018/12/11 05:30 EST    7.58 -99.99 -999 -999 -999 -99.9 -99.9 -999.9 -9.9 -9.999 -99.9 -99.99 -9.99
2018/12/11 05:36 EST    7.55 -99.99 -999 -999 -999 -99.9 -99.9 -999.9 -9.9 -9.999 -99.9 -99.99 -9.99
2018/12/11 05:42 EST    7.51 -99.99 -999 -999 -999 -99.9 -99.9 -999.9 -9.9 -9.999 -99.9 -99.99 -9.99
2018/12/11 05:48 EST    7.46 -99.99 -999 -999 -999 -99.9 -99.9 -999.9 -9.9 -9.999 -99.9 -99.99 -9.99
2018/12/11 05:54 EST    7.39 -99.99 -999 -999 -999 -99.9 -99.9 -999.9 -9.9 -9.999 -99.9 -99.99 -9.99
2018/12/11 06:00 EST    7.30 -99.99 -999 -999 -999 -99.9 -99.9 -999.9 -9.9 -9.999 -99.9 -99.99 -9.99
2018/12/11 06:06 EST    7.21 -99.99 -999 -999 -999 -99.9 -99.9 -999.9 -9.9 -9.999 -99.9 -99.99 -9.99
2018/12/11 06:12 EST    7.10 -99.99 -999 -999 -999 -99.9 -99.9 -999.9 -9.9 -9.999 -99.9 -99.99 -9.99
2018/12/11 06:18 EST    6.98 -99.99 -999 -999 -999 -99.9 -99.9 -999.9 -9.9 -9.999 -99.9 -99.99 -9.99
2018/12/11 06:24 EST    6.85 -99.99 -999 -999 -999 -99.9 -99.9 -999.9 -9.9 -9.999 -99.9 -99.99 -9.99
2018/12/11 06:30 EST    6.71 -99.99 -999 -999 -999 -99.9 -99.9 -999.9 -9.9 -9.999 -99.9 -99.99 -9.99
2018/12/11 06:36 EST    6.57 -99.99 -999 -999 -999 -99.9 -99.9 -999.9 -9.9 -9.999 -99.9 -99.99 -9.99
2018/12/11 06:42 EST    6.41 -99.99 -999 -999 -999 -99.9 -99.9 -999.9 -9.9 -9.999 -99.9 -99.99 -9.99
2018/12/11 06:48 EST    6.25 -99.99 -999 -999 -999 -99.9 -99.9 -999.9 -9.9 -9.999 -99.9 -99.99 -9.99
2018/12/11 06:54 EST    6.09 -99.99 -999 -999 -999 -99.9 -99.9 -999.9 -9.9 -9.999 -99.9 -99.99 -9.99
2018/12/11 07:00 EST    5.92 -99.99 -999 -999 -999 -99.9 -99.9 -999.9 -9.9 -9.999 -99.9 -99.99 -9.99
2018/12/11 07:06 EST    5.75 -99.99 -999 -999 -999 -99.9 -99.9 -999.9 -9.9 -9.999 -99.9 -99.99 -9.99
2018/12/11 07:12 EST    5.58 -99.99 -999 -999 -999 -99.9 -99.9 -999.9 -9.9 -9.999 -99.9 -99.99 -9.99
2018/12/11 07:18 EST    5.40 -99.99 -999 -999 -999 -99.9 -99.9 -999.9 -9.9 -9.999 -99.9 -99.99 -9.99
2018/12/11 07:24 EST    5.23 -99.99 -999 -999 -999 -99.9 -99.9 -999.9 -9.9 -9.999 -99.9 -99.99 -9.99
2018/12/11 07:30 EST    5.06 -99.99 -999 -999 -999 -99.9 -99.9 -999.9 -9.9 -9.999 -99.9 -99.99 -9.99
2018/12/11 07:36 EST    4.88 -99.99 -999 -999 -999 -99.9 -99.9 -999.9 -9.9 -9.999 -99.9 -99.99 -9.99
2018/12/11 07:42 EST    4.71 -99.99 -999 -999 -999 -99.9 -99.9 -999.9 -9.9 -9.999 -99.9 -99.99 -9.99
2018/12/11 07:48 EST    4.54 -99.99 -999 -999 -999 -99.9 -99.9 -999.9 -9.9 -9.999 -99.9 -99.99 -9.99
2018/12/11 07:54 EST    4.37 -99.99 -999 -999 -999 -99.9 -99.9 -999.9 -9.9 -9.999 -99.9 -99.99 -9.99
2018/12/11 08:00 EST    4.21 -99.99 -999 -999 -999 -99.9 -99.9 -999.9 -9.9 -9.999 -99.9 -99.99 -9.99
2018/12/11 08:06 EST    4.04 -99.99 -999 -999 -999 -99.9 -99.9 -999.9 -9.9 -9.999 -99.9 -99.99 -9.99
2018/12/11 08:12 EST    3.88 -99.99 -999 -999 -999 -99.9 -99.9 -999.9 -9.9 -9.999 -99.9 -99.99 -9.99
2018/12/11 08:18 EST    3.72 -99.99 -999 -999 -999 -99.9 -99.9 -999.9 -9.9 -9.999 -99.9 -99.99 -9.99
2018/12/11 08:24 EST    3.57 -99.99 -999 -999 -999 -99.9 -99.9 -999.9 -9.9 -9.999 -99.9 -99.99 -9.99
2018/12/11 08:30 EST    3.41 -99.99 -999 -999 -999 -99.9 -99.9 -999.9 -9.9 -9.999 -99.9 -99.99 -9.99
2018/12/11 08:36 EST    3.26 -99.99 -999 -999 -999 -99.9 -99.9 -999.9 -9.9 -9.999 -99.9 -99.99 -9.99
2018/12/11 08:42 EST    3.11 -99.99 -999 -999 -999 -99.9 -99.9 -999.9 -9.9 -9.999 -99.9 -99.99 -9.99
2018/12/11 08:48 EST    2.97 -99.99 -999 -999 -999 -99.9 -99.9 -999.9 -9.9 -9.999 -99.9 -99.99 -9.99
2018/12/11 08:54 EST    2.83 -99.99 -999 -999 -999 -99.9 -99.9 -999.9 -9.9 -9.999 -99.9 -99.99 -9.99
2018/12/11 09:00 EST    2.69 -99.99 -999 -999 -999 -99.9 -99.9 -999.9 -9.9 -9.999 -99.9 -99.99 -9.99
2018/12/11 09:06 EST    2.56 -99.99 -999 -999 -999 -99.9 -99.9 -999.9 -9.9 -9.999 -99.9 -99.99 -9.99
2018/12/11 09:12 EST    2.43 -99.99 -999 -999 -999 -99.9 -99.9 -999.9 -9.9 -9.999 -99.9 -99.99 -9.99
2018/12/11 09:18 EST    2.31 -99.99 -999 -999 -999 -99.9 -99.9 -999.9 -9.9 -9.999 -99.9 -99.99 -9.99
2018/12/11 09:24 EST    2.19 -99.99 -999 -999 -999 -99.9 -99.9 -999.9 -9.9 -9.999 -99.9 -99.99 -9.99
2018/12/11 09:30 EST    2.07 -99.99 -999 -999 -999 -99.9 -99.9 -999.9 -9.9 -9.999 -99.9 -99.99 -9.99
2018/12/11 09:36 EST    1.96 -99.99 -999 -999 -999 -99.9 -99.9 -999.9 -9.9 -9.999 -99.9 -99.99 -9.99
2018/12/11 09:42 EST    1.86 -99.99 -999 -999 -999 -99.9 -99.9 -999.9 -9.9 -9.999 -99.9 -99.99 -9.99
2018/12/11 09:48 EST    1.76 -99.99 -999 -999 -999 -99.9 -99.9 -999.9 -9.9 -9.999 -99.9 -99.99 -9.99
2018/12/11 09:54 EST    1.66 -99.99 -999 -999 -999 -99.9 -99.9 -999.9 -9.9 -9.999 -99.9 -99.99 -9.99
2018/12/11 10:00 EST    1.57 -99.99 -999 -999 -999 -99.9 -99.9 -999.9 -9.9 -9.999 -99.9 -99.99 -9.99
2018/12/11 10:06 EST    1.48 -99.99 -999 -999 -999 -99.9 -99.9 -999.9 -9.9 -9.999 -99.9 -99.99 -9.99
2018/12/11 10:12 EST    1.40 -99.99 -999 -999 -999 -99.9 -99.9 -999.9 -9.9 -9.999 -99.9 -99.99 -9.99
2018/12/11 10:18 EST    1.33 -99.99 -999 -999 -999 -99.9 -99.9 -999.9 -9.9 -9.999 -99.9 -99.99 -9.99
2018/12/11 10:24 EST    1.25 -99.99 -999 -999 -999 -99.9 -99.9 -999.9 -9.9 -9.999 -99.9 -99.99 -9.99
2018/12/11 10:30 EST    1.18 -99.99 -999 -999 -999 -99.9 -99.9 -999.9 -9.9 -9.999 -99.9 -99.99 -9.99
2018/12/11 10:36 EST    1.12 -99.99 -999 -999 -999 -99.9 -99.9 -999.9 -9.9 -9.999 -99.9 -99.99 -9.99
2018/12/11 10:42 EST    1.05 -99.99 -999 -999 -999 -99.9 -99.9 -999.9 -9.9 -9.999 -99.9 -99.99 -9.99
2018/12/11 10:48 EST    0.99 -99.99 -999 -999 -999 -99.9 -99.9 -999.9 -9.9 -9.999 -99.9 -99.99 -9.99
2018/12/11 10:54 EST    0.93 -99.99 -999 -999 -999 -99.9 -99.9 -999.9 -9.9 -9.999 -99.9 -99.99 -9.99
2018/12/11 11:00 EST    0.88 -99.99 -999 -999 -999 -99.9 -99.9 -999.9 -9.9 -9.999 -99.9 -99.99 -9.99
2018/12/11 11:06 EST    0.82 -99.99 -999 -999 -999 -99.9 -99.9 -999.9 -9.9 -9.999 -99.9 -99.99 -9.99

Revised: 08/08/2018
NOAA / National Ocean Service
Web site owner: Center for Operational Oceanographic Products and Services